sensor_id;sensor_type;location;lat;lon;timestamp;temperature;humidity
13433;DHT22;6789;47.678;9.158;2024-01-15T00:00:15;2.70;99.90
13433;DHT22;6789;47.678;9.158;2024-01-15T00:05:07;2.70;99.90
13433;DHT22;6789;47.678;9.158;2024-01-15T00:09:59;2.70;99.90
13433;DHT22;6789;47.678;9.158;2024-01-15T00:14:51;2.70;99.90
13433;DHT22;6789;47.678;9.158;2024-01-15T00:19:43;2.70;99.90
13433;DHT22;6789;47.678;9.158;2024-01-15T00:24:35;2.60;99.90
13433;DHT22;6789;47.678;9.158;2024-01-15T00:29:27;2.60;99.90
13433;DHT22;6789;47.678;9.158;2024-01-15T00:34:19;2.60;99.90
13433;DHT22;6789;47.678;9.158;2024-01-15T00:39:10;2.60;99.90
13433;DHT22;6789;47.678;9.158;2024-01-15T00:44:02;2.50;99.90
13433;DHT22;6789;47.678;9.158;2024-01-15T00:48:54;2.50;99.90
13433;DHT22;6789;47.678;9.158;2024-01-15T00:53:46;2.60;99.90
13433;DHT22;6789;47.678;9.158;2024-01-15T00:58:38;2.60;99.90
13433;DHT22;6789;47.678;9.158;2024-01-15T01:03:30;2.50;99.90
13433;DHT22;6789;47.678;9.158;2024-01-15T01:08:22;2.50;99.90
13433;DHT22;6789;47.678;9.158;2024-01-15T01:13:13;2.50;99.90
13433;DHT22;6789;47.678;9.158;2024-01-15T01:18:05;2.60;99.90
13433;DHT22;6789;47.678;9.158;2024-01-15T01:22:57;2.60;99.90
13433;DHT22;6789;47.678;9.158;2024-01-15T01:27:49;2.60;99.90
13433;DHT22;6789;47.678;9.158;2024-01-15T01:32:41;2.60;99.90
13433;DHT22;6789;47.678;9.158;2024-01-15T01:37:33;2.70;99.90
13433;DHT22;6789;47.678;9.158;2024-01-15T01:42:25;2.70;99.90
13433;DHT22;6789;47.678;9.158;2024-01-15T01:47:18;2.70;99.90
13433;DHT22;6789;47.678;9.158;2024-01-15T01:52:10;2.80;99.90
13433;DHT22;6789;47.678;9.158;2024-01-15T01:57:03;2.80;99.90
13433;DHT22;6789;47.678;9.158;2024-01-15T02:01:57;2.80;99.90
13433;DHT22;6789;47.678;9.158;2024-01-15T02:06:52;2.90;99.90
13433;DHT22;6789;47.678;9.158;2024-01-15T02:11:46;3.10;99.90
13433;DHT22;6789;47.678;9.158;2024-01-15T02:16:38;3.00;99.90
13433;DHT22;6789;47.678;9.158;2024-01-15T02:21:31;2.90;99.90
13433;DHT22;6789;47.678;9.158;2024-01-15T02:26:24;2.70;99.90
13433;DHT22;6789;47.678;9.158;2024-01-15T02:31:15;2.60;99.90
13433;DHT22;6789;47.678;9.158;2024-01-15T02:36:07;2.40;99.90
13433;DHT22;6789;47.678;9.158;2024-01-15T02:40:59;2.20;99.90
13433;DHT22;6789;47.678;9.158;2024-01-15T02:45:51;1.90;99.90
13433;DHT22;6789;47.678;9.158;2024-01-15T02:50:43;1.80;99.90
13433;DHT22;6789;47.678;9.158;2024-01-15T02:55:35;1.70;99.90
13433;DHT22;6789;47.678;9.158;2024-01-15T03:00:27;1.70;99.90
13433;DHT22;6789;47.678;9.158;2024-01-15T03:05:19;1.80;99.90
13433;DHT22;6789;47.678;9.158;2024-01-15T03:10:11;1.80;99.90
13433;DHT22;6789;47.678;9.158;2024-01-15T03:15:03;1.80;99.90
13433;DHT22;6789;47.678;9.158;2024-01-15T03:19:56;1.70;99.90
13433;DHT22;6789;47.678;9.158;2024-01-15T03:24:48;1.70;99.90
13433;DHT22;6789;47.678;9.158;2024-01-15T03:29:40;1.60;99.90
13433;DHT22;6789;47.678;9.158;2024-01-15T03:34:32;1.50;99.90
13433;DHT22;6789;47.678;9.158;2024-01-15T03:39:24;1.60;99.90
13433;DHT22;6789;47.678;9.158;2024-01-15T03:44:16;1.70;99.90
13433;DHT22;6789;47.678;9.158;2024-01-15T03:49:08;1.70;99.90
13433;DHT22;6789;47.678;9.158;2024-01-15T03:54:00;1.70;99.90
13433;DHT22;6789;47.678;9.158;2024-01-15T03:58:52;1.80;99.90
13433;DHT22;6789;47.678;9.158;2024-01-15T04:03:44;1.80;99.90
13433;DHT22;6789;47.678;9.158;2024-01-15T04:08:36;1.70;99.90
13433;DHT22;6789;47.678;9.158;2024-01-15T04:13:28;1.70;99.90
13433;DHT22;6789;47.678;9.158;2024-01-15T04:18:19;1.80;99.90
13433;DHT22;6789;47.678;9.158;2024-01-15T04:23:11;1.70;99.90
13433;DHT22;6789;47.678;9.158;2024-01-15T04:28:03;1.70;99.90
13433;DHT22;6789;47.678;9.158;2024-01-15T04:32:56;1.70;99.90
13433;DHT22;6789;47.678;9.158;2024-01-15T04:37:47;1.80;99.90
13433;DHT22;6789;47.678;9.158;2024-01-15T04:42:39;1.80;99.90
13433;DHT22;6789;47.678;9.158;2024-01-15T04:47:31;1.80;99.90
13433;DHT22;6789;47.678;9.158;2024-01-15T04:52:23;1.90;99.90
13433;DHT22;6789;47.678;9.158;2024-01-15T04:57:15;1.90;99.90
13433;DHT22;6789;47.678;9.158;2024-01-15T05:02:06;1.90;99.90
13433;DHT22;6789;47.678;9.158;2024-01-15T05:06:58;1.90;99.90
13433;DHT22;6789;47.678;9.158;2024-01-15T05:11:50;1.90;99.90
13433;DHT22;6789;47.678;9.158;2024-01-15T05:16:49;1.90;99.90
13433;DHT22;6789;47.678;9.158;2024-01-15T05:21:41;1.90;99.90
13433;DHT22;6789;47.678;9.158;2024-01-15T05:26:33;1.90;99.90
13433;DHT22;6789;47.678;9.158;2024-01-15T05:31:24;1.90;99.90
13433;DHT22;6789;47.678;9.158;2024-01-15T05:36:17;1.90;99.90
13433;DHT22;6789;47.678;9.158;2024-01-15T05:41:08;1.90;99.90
13433;DHT22;6789;47.678;9.158;2024-01-15T05:46:00;1.90;99.90
13433;DHT22;6789;47.678;9.158;2024-01-15T05:50:52;1.90;99.90
13433;DHT22;6789;47.678;9.158;2024-01-15T05:55:44;1.90;99.90
13433;DHT22;6789;47.678;9.158;2024-01-15T06:00:35;1.90;99.90
13433;DHT22;6789;47.678;9.158;2024-01-15T06:05:29;2.00;99.90
13433;DHT22;6789;47.678;9.158;2024-01-15T06:10:22;1.90;99.90
13433;DHT22;6789;47.678;9.158;2024-01-15T06:15:13;1.90;99.90
13433;DHT22;6789;47.678;9.158;2024-01-15T06:20:06;1.90;99.90
13433;DHT22;6789;47.678;9.158;2024-01-15T06:24:58;1.90;99.90
13433;DHT22;6789;47.678;9.158;2024-01-15T06:29:50;1.90;99.90
13433;DHT22;6789;47.678;9.158;2024-01-15T06:34:42;1.80;99.90
13433;DHT22;6789;47.678;9.158;2024-01-15T06:39:34;1.90;99.90
13433;DHT22;6789;47.678;9.158;2024-01-15T06:44:26;1.90;99.90
13433;DHT22;6789;47.678;9.158;2024-01-15T06:49:17;1.90;99.90
13433;DHT22;6789;47.678;9.158;2024-01-15T06:54:09;2.00;99.90
13433;DHT22;6789;47.678;9.158;2024-01-15T06:59:01;2.00;99.90
13433;DHT22;6789;47.678;9.158;2024-01-15T07:03:54;2.00;99.90
13433;DHT22;6789;47.678;9.158;2024-01-15T07:08:46;1.90;99.90
13433;DHT22;6789;47.678;9.158;2024-01-15T07:13:38;1.90;99.90
13433;DHT22;6789;47.678;9.158;2024-01-15T07:18:29;2.00;99.90
13433;DHT22;6789;47.678;9.158;2024-01-15T07:23:22;1.90;99.90
13433;DHT22;6789;47.678;9.158;2024-01-15T07:28:14;2.00;99.90
13433;DHT22;6789;47.678;9.158;2024-01-15T07:33:05;1.90;99.90
13433;DHT22;6789;47.678;9.158;2024-01-15T07:37:57;1.80;99.90
13433;DHT22;6789;47.678;9.158;2024-01-15T07:42:49;2.00;99.90
13433;DHT22;6789;47.678;9.158;2024-01-15T07:47:41;1.90;99.90
13433;DHT22;6789;47.678;9.158;2024-01-15T07:52:33;1.80;99.90
13433;DHT22;6789;47.678;9.158;2024-01-15T07:57:25;1.80;99.90
13433;DHT22;6789;47.678;9.158;2024-01-15T08:02:17;1.80;99.90
13433;DHT22;6789;47.678;9.158;2024-01-15T08:07:09;1.80;99.90
13433;DHT22;6789;47.678;9.158;2024-01-15T08:12:01;1.80;99.90
13433;DHT22;6789;47.678;9.158;2024-01-15T08:16:53;1.80;99.90
13433;DHT22;6789;47.678;9.158;2024-01-15T08:21:45;1.90;99.90
13433;DHT22;6789;47.678;9.158;2024-01-15T08:26:37;1.90;99.90
13433;DHT22;6789;47.678;9.158;2024-01-15T08:31:29;1.80;99.90
13433;DHT22;6789;47.678;9.158;2024-01-15T08:36:21;1.90;99.90
13433;DHT22;6789;47.678;9.158;2024-01-15T08:41:15;1.90;99.90
13433;DHT22;6789;47.678;9.158;2024-01-15T08:46:07;1.90;99.90
13433;DHT22;6789;47.678;9.158;2024-01-15T08:51:01;1.90;99.90
13433;DHT22;6789;47.678;9.158;2024-01-15T08:55:53;2.00;99.90
13433;DHT22;6789;47.678;9.158;2024-01-15T09:00:45;2.00;99.90
13433;DHT22;6789;47.678;9.158;2024-01-15T09:05:37;2.20;99.90
13433;DHT22;6789;47.678;9.158;2024-01-15T09:10:28;2.10;99.90
13433;DHT22;6789;47.678;9.158;2024-01-15T09:15:20;2.10;99.90
13433;DHT22;6789;47.678;9.158;2024-01-15T09:20:12;2.10;99.90
13433;DHT22;6789;47.678;9.158;2024-01-15T09:25:04;2.20;99.90
13433;DHT22;6789;47.678;9.158;2024-01-15T09:29:56;2.20;99.90
13433;DHT22;6789;47.678;9.158;2024-01-15T09:34:48;2.20;99.90
13433;DHT22;6789;47.678;9.158;2024-01-15T09:39:40;2.20;99.90
13433;DHT22;6789;47.678;9.158;2024-01-15T09:44:32;2.30;99.90
13433;DHT22;6789;47.678;9.158;2024-01-15T09:49:24;2.40;99.90
13433;DHT22;6789;47.678;9.158;2024-01-15T09:54:16;2.50;99.90
13433;DHT22;6789;47.678;9.158;2024-01-15T09:59:08;2.60;99.90
13433;DHT22;6789;47.678;9.158;2024-01-15T10:04:01;2.50;99.90
13433;DHT22;6789;47.678;9.158;2024-01-15T10:08:54;2.50;99.90
13433;DHT22;6789;47.678;9.158;2024-01-15T10:13:49;2.50;99.90
13433;DHT22;6789;47.678;9.158;2024-01-15T10:18:51;2.60;99.90
13433;DHT22;6789;47.678;9.158;2024-01-15T10:23:43;2.70;99.90
13433;DHT22;6789;47.678;9.158;2024-01-15T10:28:35;2.80;99.90
13433;DHT22;6789;47.678;9.158;2024-01-15T10:33:27;2.90;99.90
13433;DHT22;6789;47.678;9.158;2024-01-15T10:38:20;3.00;99.90
13433;DHT22;6789;47.678;9.158;2024-01-15T10:43:16;3.00;99.90
13433;DHT22;6789;47.678;9.158;2024-01-15T10:48:09;3.10;99.90
13433;DHT22;6789;47.678;9.158;2024-01-15T10:53:01;3.10;99.90
13433;DHT22;6789;47.678;9.158;2024-01-15T10:57:54;3.20;99.90
13433;DHT22;6789;47.678;9.158;2024-01-15T11:02:48;3.20;99.90
13433;DHT22;6789;47.678;9.158;2024-01-15T11:07:40;3.30;99.90
13433;DHT22;6789;47.678;9.158;2024-01-15T11:12:33;3.20;99.90
13433;DHT22;6789;47.678;9.158;2024-01-15T11:17:25;3.10;99.90
13433;DHT22;6789;47.678;9.158;2024-01-15T11:27:39;2.90;99.90
13433;DHT22;6789;47.678;9.158;2024-01-15T11:33:34;2.80;99.90
13433;DHT22;6789;47.678;9.158;2024-01-15T11:38:41;2.50;99.90
13433;DHT22;6789;47.678;9.158;2024-01-15T11:43:47;2.60;99.90
13433;DHT22;6789;47.678;9.158;2024-01-15T11:48:43;2.50;99.90
13433;DHT22;6789;47.678;9.158;2024-01-15T11:53:44;2.60;99.90
13433;DHT22;6789;47.678;9.158;2024-01-15T11:58:40;2.80;99.90
13433;DHT22;6789;47.678;9.158;2024-01-15T12:03:32;2.80;99.90
13433;DHT22;6789;47.678;9.158;2024-01-15T12:08:27;2.90;99.90
13433;DHT22;6789;47.678;9.158;2024-01-15T12:13:20;2.80;99.90
13433;DHT22;6789;47.678;9.158;2024-01-15T12:18:15;2.90;99.90
13433;DHT22;6789;47.678;9.158;2024-01-15T12:23:09;3.00;99.90
13433;DHT22;6789;47.678;9.158;2024-01-15T12:28:16;3.20;99.90
13433;DHT22;6789;47.678;9.158;2024-01-15T12:33:08;3.50;99.90
13433;DHT22;6789;47.678;9.158;2024-01-15T12:38:01;3.40;99.90
13433;DHT22;6789;47.678;9.158;2024-01-15T12:42:57;3.50;99.90
13433;DHT22;6789;47.678;9.158;2024-01-15T12:47:49;3.50;99.90
13433;DHT22;6789;47.678;9.158;2024-01-15T12:52:42;3.40;99.90
13433;DHT22;6789;47.678;9.158;2024-01-15T12:57:35;3.30;99.90
13433;DHT22;6789;47.678;9.158;2024-01-15T13:02:27;3.20;99.90
13433;DHT22;6789;47.678;9.158;2024-01-15T13:07:19;3.20;99.90
13433;DHT22;6789;47.678;9.158;2024-01-15T13:12:11;3.40;99.90
13433;DHT22;6789;47.678;9.158;2024-01-15T13:17:03;3.60;99.90
13433;DHT22;6789;47.678;9.158;2024-01-15T13:21:55;3.90;99.90
13433;DHT22;6789;47.678;9.158;2024-01-15T13:26:50;3.90;99.90
13433;DHT22;6789;47.678;9.158;2024-01-15T13:31:41;3.80;99.90
13433;DHT22;6789;47.678;9.158;2024-01-15T13:36:34;3.60;99.90
13433;DHT22;6789;47.678;9.158;2024-01-15T13:46:43;3.60;99.90
13433;DHT22;6789;47.678;9.158;2024-01-15T13:51:36;3.80;99.90
13433;DHT22;6789;47.678;9.158;2024-01-15T13:56:28;3.90;99.90
13433;DHT22;6789;47.678;9.158;2024-01-15T14:01:24;4.00;99.90
13433;DHT22;6789;47.678;9.158;2024-01-15T14:06:16;4.00;99.90
13433;DHT22;6789;47.678;9.158;2024-01-15T14:11:08;3.90;99.90
13433;DHT22;6789;47.678;9.158;2024-01-15T14:16:01;4.00;99.90
13433;DHT22;6789;47.678;9.158;2024-01-15T14:20:53;4.10;99.90
13433;DHT22;6789;47.678;9.158;2024-01-15T14:25:45;4.10;99.90
13433;DHT22;6789;47.678;9.158;2024-01-15T14:30:37;4.10;99.90
13433;DHT22;6789;47.678;9.158;2024-01-15T14:35:29;4.10;99.90
13433;DHT22;6789;47.678;9.158;2024-01-15T14:40:21;4.10;99.90
13433;DHT22;6789;47.678;9.158;2024-01-15T14:45:13;4.10;99.90
13433;DHT22;6789;47.678;9.158;2024-01-15T14:50:07;3.80;99.90
13433;DHT22;6789;47.678;9.158;2024-01-15T14:55:01;3.80;99.90
13433;DHT22;6789;47.678;9.158;2024-01-15T14:59:54;3.80;99.90
13433;DHT22;6789;47.678;9.158;2024-01-15T15:04:46;3.70;99.90
13433;DHT22;6789;47.678;9.158;2024-01-15T15:09:43;3.50;99.90
13433;DHT22;6789;47.678;9.158;2024-01-15T15:14:37;3.40;99.90
13433;DHT22;6789;47.678;9.158;2024-01-15T15:19:46;3.30;99.90
13433;DHT22;6789;47.678;9.158;2024-01-15T15:24:40;3.20;99.90
13433;DHT22;6789;47.678;9.158;2024-01-15T15:29:33;3.10;99.90
13433;DHT22;6789;47.678;9.158;2024-01-15T15:34:26;3.10;99.90
13433;DHT22;6789;47.678;9.158;2024-01-15T15:39:19;3.00;99.90
13433;DHT22;6789;47.678;9.158;2024-01-15T15:44:10;3.00;99.90
13433;DHT22;6789;47.678;9.158;2024-01-15T15:49:04;3.00;99.90
13433;DHT22;6789;47.678;9.158;2024-01-15T15:53:58;3.00;99.90
13433;DHT22;6789;47.678;9.158;2024-01-15T15:58:50;2.90;99.90
13433;DHT22;6789;47.678;9.158;2024-01-15T16:03:42;2.90;99.90
13433;DHT22;6789;47.678;9.158;2024-01-15T16:08:34;2.90;99.90
13433;DHT22;6789;47.678;9.158;2024-01-15T16:13:26;2.90;99.90
13433;DHT22;6789;47.678;9.158;2024-01-15T16:18:18;2.90;99.90
13433;DHT22;6789;47.678;9.158;2024-01-15T16:23:29;2.80;99.90
13433;DHT22;6789;47.678;9.158;2024-01-15T16:28:41;2.80;99.90
13433;DHT22;6789;47.678;9.158;2024-01-15T16:33:33;2.70;99.90
13433;DHT22;6789;47.678;9.158;2024-01-15T16:38:25;2.70;99.90
13433;DHT22;6789;47.678;9.158;2024-01-15T16:43:17;2.70;99.90
13433;DHT22;6789;47.678;9.158;2024-01-15T16:48:09;2.80;99.90
13433;DHT22;6789;47.678;9.158;2024-01-15T16:53:01;2.70;99.90
13433;DHT22;6789;47.678;9.158;2024-01-15T16:57:53;2.70;99.90
13433;DHT22;6789;47.678;9.158;2024-01-15T17:02:44;2.60;99.90
13433;DHT22;6789;47.678;9.158;2024-01-15T17:07:36;2.60;99.90
13433;DHT22;6789;47.678;9.158;2024-01-15T17:12:29;2.70;99.90
13433;DHT22;6789;47.678;9.158;2024-01-15T17:17:21;2.70;99.90
13433;DHT22;6789;47.678;9.158;2024-01-15T17:22:13;2.60;99.90
13433;DHT22;6789;47.678;9.158;2024-01-15T17:27:05;2.60;99.90
13433;DHT22;6789;47.678;9.158;2024-01-15T17:31:59;2.50;99.90
13433;DHT22;6789;47.678;9.158;2024-01-15T17:36:50;2.50;99.90
13433;DHT22;6789;47.678;9.158;2024-01-15T17:41:42;2.40;99.90
13433;DHT22;6789;47.678;9.158;2024-01-15T17:46:34;2.30;99.90
13433;DHT22;6789;47.678;9.158;2024-01-15T17:51:27;2.30;99.90
13433;DHT22;6789;47.678;9.158;2024-01-15T17:56:19;2.30;99.90
13433;DHT22;6789;47.678;9.158;2024-01-15T18:01:11;2.20;99.90
13433;DHT22;6789;47.678;9.158;2024-01-15T18:06:03;2.20;99.90
13433;DHT22;6789;47.678;9.158;2024-01-15T18:10:55;2.20;99.90
13433;DHT22;6789;47.678;9.158;2024-01-15T18:15:47;2.10;99.90
13433;DHT22;6789;47.678;9.158;2024-01-15T18:20:38;2.10;99.90
13433;DHT22;6789;47.678;9.158;2024-01-15T18:25:30;2.00;99.90
13433;DHT22;6789;47.678;9.158;2024-01-15T18:30:22;2.00;99.90
13433;DHT22;6789;47.678;9.158;2024-01-15T18:35:14;1.90;99.90
13433;DHT22;6789;47.678;9.158;2024-01-15T18:40:06;1.90;99.90
13433;DHT22;6789;47.678;9.158;2024-01-15T18:45:01;1.70;99.90
13433;DHT22;6789;47.678;9.158;2024-01-15T18:49:53;1.70;99.90
13433;DHT22;6789;47.678;9.158;2024-01-15T18:54:46;1.70;99.90
13433;DHT22;6789;47.678;9.158;2024-01-15T18:59:38;1.50;99.90
13433;DHT22;6789;47.678;9.158;2024-01-15T19:04:31;1.30;99.90
13433;DHT22;6789;47.678;9.158;2024-01-15T19:09:23;1.30;99.90
13433;DHT22;6789;47.678;9.158;2024-01-15T19:14:17;1.20;99.90
13433;DHT22;6789;47.678;9.158;2024-01-15T19:19:09;1.10;99.90
13433;DHT22;6789;47.678;9.158;2024-01-15T19:24:01;1.00;99.90
13433;DHT22;6789;47.678;9.158;2024-01-15T19:28:54;1.00;99.90
13433;DHT22;6789;47.678;9.158;2024-01-15T19:33:47;0.90;99.90
13433;DHT22;6789;47.678;9.158;2024-01-15T19:38:40;0.90;99.90
13433;DHT22;6789;47.678;9.158;2024-01-15T19:43:32;0.80;99.90
13433;DHT22;6789;47.678;9.158;2024-01-15T19:48:23;0.80;99.90
13433;DHT22;6789;47.678;9.158;2024-01-15T19:53:15;0.80;99.90
13433;DHT22;6789;47.678;9.158;2024-01-15T19:58:07;0.80;99.90
13433;DHT22;6789;47.678;9.158;2024-01-15T20:02:59;0.80;99.90
13433;DHT22;6789;47.678;9.158;2024-01-15T20:07:51;0.80;99.90
13433;DHT22;6789;47.678;9.158;2024-01-15T20:12:43;0.90;99.90
13433;DHT22;6789;47.678;9.158;2024-01-15T20:17:35;0.90;99.90
13433;DHT22;6789;47.678;9.158;2024-01-15T20:22:26;1.00;99.90
13433;DHT22;6789;47.678;9.158;2024-01-15T20:27:20;1.00;99.90
13433;DHT22;6789;47.678;9.158;2024-01-15T20:32:12;1.10;99.90
13433;DHT22;6789;47.678;9.158;2024-01-15T20:37:05;1.10;99.90
13433;DHT22;6789;47.678;9.158;2024-01-15T20:41:57;1.20;99.90
13433;DHT22;6789;47.678;9.158;2024-01-15T20:46:49;1.20;99.90
13433;DHT22;6789;47.678;9.158;2024-01-15T20:51:41;1.20;99.90
13433;DHT22;6789;47.678;9.158;2024-01-15T20:56:33;1.20;99.90
13433;DHT22;6789;47.678;9.158;2024-01-15T21:01:25;1.20;99.90
13433;DHT22;6789;47.678;9.158;2024-01-15T21:06:17;1.20;99.90
13433;DHT22;6789;47.678;9.158;2024-01-15T21:11:09;1.20;99.90
13433;DHT22;6789;47.678;9.158;2024-01-15T21:16:00;1.40;99.90
13433;DHT22;6789;47.678;9.158;2024-01-15T21:20:52;1.50;99.90
13433;DHT22;6789;47.678;9.158;2024-01-15T21:25:46;1.40;99.90
13433;DHT22;6789;47.678;9.158;2024-01-15T21:30:38;1.30;99.90
13433;DHT22;6789;47.678;9.158;2024-01-15T21:35:30;1.10;99.90
13433;DHT22;6789;47.678;9.158;2024-01-15T21:40:22;1.00;99.90
13433;DHT22;6789;47.678;9.158;2024-01-15T21:45:14;1.00;99.90
13433;DHT22;6789;47.678;9.158;2024-01-15T21:50:06;0.90;99.90
13433;DHT22;6789;47.678;9.158;2024-01-15T21:55:00;0.80;99.90
13433;DHT22;6789;47.678;9.158;2024-01-15T21:59:52;0.70;99.90
13433;DHT22;6789;47.678;9.158;2024-01-15T22:04:44;0.70;99.90
13433;DHT22;6789;47.678;9.158;2024-01-15T22:09:36;0.50;99.90
13433;DHT22;6789;47.678;9.158;2024-01-15T22:14:28;0.40;99.90
13433;DHT22;6789;47.678;9.158;2024-01-15T22:19:19;0.40;99.90
13433;DHT22;6789;47.678;9.158;2024-01-15T22:24:11;0.30;99.90
13433;DHT22;6789;47.678;9.158;2024-01-15T22:29:03;0.30;99.90
13433;DHT22;6789;47.678;9.158;2024-01-15T22:33:55;0.20;99.90
13433;DHT22;6789;47.678;9.158;2024-01-15T22:38:47;0.20;99.90
13433;DHT22;6789;47.678;9.158;2024-01-15T22:43:42;0.00;99.90
13433;DHT22;6789;47.678;9.158;2024-01-15T22:48:34;-0.10;99.90
13433;DHT22;6789;47.678;9.158;2024-01-15T22:53:25;-0.20;99.90
13433;DHT22;6789;47.678;9.158;2024-01-15T22:58:17;-0.10;99.90
13433;DHT22;6789;47.678;9.158;2024-01-15T23:18:15;-0.20;99.90
13433;DHT22;6789;47.678;9.158;2024-01-15T23:23:07;-0.30;99.90
13433;DHT22;6789;47.678;9.158;2024-01-15T23:27:59;-0.30;99.90
13433;DHT22;6789;47.678;9.158;2024-01-15T23:32:51;-0.40;99.90
13433;DHT22;6789;47.678;9.158;2024-01-15T23:37:43;-0.60;99.90
13433;DHT22;6789;47.678;9.158;2024-01-15T23:42:35;-0.70;99.90
13433;DHT22;6789;47.678;9.158;2024-01-15T23:47:27;-0.70;99.90
13433;DHT22;6789;47.678;9.158;2024-01-15T23:52:19;-0.70;99.90
13433;DHT22;6789;47.678;9.158;2024-01-15T23:57:10;-0.90;99.90
